createdAt,value
2019-03-16T00:00:52.111Z,9.90
2019-03-16T00:03:17.954Z,10.02
2019-03-16T00:05:43.784Z,9.93
2019-03-16T00:08:09.666Z,9.98
2019-03-16T00:10:35.510Z,9.85
2019-03-16T00:13:01.354Z,10.03
2019-03-16T00:15:27.286Z,9.94
2019-03-16T00:17:53.118Z,9.98
2019-03-16T00:20:19.051Z,9.92
2019-03-16T00:22:44.914Z,9.85
2019-03-16T00:25:10.756Z,9.86
2019-03-16T00:27:36.784Z,9.86
2019-03-16T00:30:13.111Z,9.84
2019-03-16T00:32:39.083Z,9.74
2019-03-16T00:35:05.215Z,9.72
2019-03-16T00:37:31.074Z,9.62
2019-03-16T00:39:56.971Z,9.54
2019-03-16T00:42:23.609Z,9.63
2019-03-16T00:44:49.498Z,9.52
2019-03-16T00:47:15.617Z,9.53
2019-03-16T00:49:41.421Z,9.43
2019-03-16T00:52:07.481Z,9.42
2019-03-16T00:54:33.368Z,9.42
2019-03-16T00:56:59.215Z,9.36
2019-03-16T00:59:25.107Z,9.46
2019-03-16T01:01:50.926Z,9.62
2019-03-16T01:04:16.857Z,9.55
2019-03-16T01:06:42.748Z,9.51
2019-03-16T01:09:08.581Z,9.55
2019-03-16T01:11:34.533Z,9.60
2019-03-16T01:14:00.424Z,9.46
2019-03-16T01:16:26.341Z,9.44
2019-03-16T01:18:52.169Z,9.38
2019-03-16T01:21:18.130Z,9.30
2019-03-16T01:23:44.085Z,9.27
2019-03-16T01:26:10.010Z,9.13
2019-03-16T01:28:35.901Z,9.15
2019-03-16T01:31:01.839Z,9.06
2019-03-16T01:33:27.668Z,9.02
2019-03-16T01:35:53.750Z,8.86
2019-03-16T01:38:19.715Z,8.89
2019-03-16T01:40:45.707Z,8.80
2019-03-16T01:43:11.526Z,8.84
2019-03-16T01:45:37.359Z,8.93
2019-03-16T01:48:03.440Z,9.04
2019-03-16T01:50:29.269Z,8.96
2019-03-16T01:52:55.211Z,8.94
2019-03-16T01:55:21.023Z,9.08
2019-03-16T01:57:46.862Z,9.17
2019-03-16T02:00:14.859Z,9.17
2019-03-16T02:02:53.847Z,8.93
2019-03-16T02:05:08.785Z,8.95
2019-03-16T02:07:34.613Z,8.89
2019-03-16T02:10:00.448Z,8.90
2019-03-16T02:12:26.443Z,8.83
2019-03-16T02:14:52.299Z,8.87
2019-03-16T02:17:18.151Z,8.81
2019-03-16T02:19:44.226Z,8.73
2019-03-16T02:22:10.020Z,8.77
2019-03-16T02:24:35.974Z,8.72
2019-03-16T02:27:02.084Z,8.67
2019-03-16T02:29:27.909Z,8.51
2019-03-16T02:31:53.832Z,8.47
2019-03-16T02:34:19.705Z,8.48
2019-03-16T02:36:50.241Z,8.61
2019-03-16T02:39:16.142Z,8.69
2019-03-16T02:41:41.991Z,8.52
2019-03-16T02:44:11.126Z,8.69
2019-03-16T02:46:35.824Z,8.83
2019-03-16T02:49:01.683Z,8.77
2019-03-16T02:51:27.518Z,8.69
2019-03-16T02:53:53.376Z,8.74
2019-03-16T02:56:19.208Z,8.61
2019-03-16T02:58:48.771Z,8.66
2019-03-16T03:01:14.818Z,8.70
2019-03-16T03:03:40.619Z,8.63
2019-03-16T03:06:06.458Z,8.59
2019-03-16T03:08:32.388Z,8.63
2019-03-16T03:10:58.367Z,8.53
2019-03-16T03:13:24.309Z,8.46
2019-03-16T03:15:50.194Z,8.67
2019-03-16T03:18:16.185Z,8.74
2019-03-16T03:20:42.021Z,8.67
2019-03-16T03:23:07.871Z,8.67
2019-03-16T03:25:33.718Z,8.68
2019-03-16T03:27:59.555Z,8.54
2019-03-16T03:30:25.512Z,8.58
2019-03-16T03:32:51.424Z,8.62
2019-03-16T03:35:17.260Z,8.58
2019-03-16T03:37:43.347Z,8.52
2019-03-16T03:40:10.481Z,8.37
2019-03-16T03:42:36.542Z,8.36
2019-03-16T03:45:04.710Z,8.37
2019-03-16T03:47:30.655Z,8.28
2019-03-16T03:49:56.602Z,8.25
2019-03-16T03:52:22.449Z,8.18
2019-03-16T03:54:48.380Z,7.94
2019-03-16T03:57:14.384Z,7.87
2019-03-16T03:59:40.480Z,7.86
2019-03-16T04:02:06.628Z,7.72
2019-03-16T04:04:32.579Z,7.75
2019-03-16T04:06:58.597Z,8.02
2019-03-16T04:09:24.749Z,8.12
2019-03-16T04:11:50.589Z,8.10
2019-03-16T04:14:16.506Z,8.29
2019-03-16T04:16:42.344Z,8.21
2019-03-16T04:19:08.182Z,8.17
2019-03-16T04:21:34.175Z,8.14
2019-03-16T04:24:00.004Z,8.03
2019-03-16T04:26:25.858Z,8.16
2019-03-16T04:28:51.790Z,8.19
2019-03-16T04:31:17.622Z,8.23
2019-03-16T04:33:43.462Z,8.21
2019-03-16T04:36:09.409Z,8.24
2019-03-16T04:38:35.258Z,8.15
2019-03-16T04:41:01.295Z,8.13
2019-03-16T04:43:27.153Z,8.13
2019-03-16T04:45:52.991Z,8.14
2019-03-16T04:48:18.813Z,8.17
2019-03-16T04:50:44.800Z,8.11
2019-03-16T04:53:10.617Z,8.07
2019-03-16T04:55:36.469Z,8.01
2019-03-16T04:58:02.504Z,7.90
2019-03-16T05:00:28.489Z,7.89
2019-03-16T05:02:54.337Z,7.95
2019-03-16T05:05:20.214Z,7.98
2019-03-16T05:07:46.057Z,7.88
2019-03-16T05:10:12.080Z,7.89
2019-03-16T05:12:38.077Z,7.74
2019-03-16T05:15:08.408Z,7.66
2019-03-16T05:17:34.240Z,7.79
2019-03-16T05:20:00.408Z,7.76
2019-03-16T05:22:26.278Z,7.63
2019-03-16T05:24:52.105Z,7.57
2019-03-16T05:27:18.173Z,7.66
2019-03-16T05:29:44.017Z,7.53
2019-03-16T05:32:09.945Z,7.56
2019-03-16T05:34:35.802Z,7.52
2019-03-16T05:37:01.725Z,7.63
2019-03-16T05:39:27.762Z,7.57
2019-03-16T05:41:53.590Z,7.66
2019-03-16T05:44:19.438Z,7.54
2019-03-16T05:46:45.281Z,7.71
2019-03-16T05:49:11.133Z,7.55
2019-03-16T05:51:37.107Z,7.46
2019-03-16T05:54:03.135Z,7.87
2019-03-16T05:56:28.982Z,7.83
2019-03-16T05:58:54.911Z,7.66
2019-03-16T06:01:20.788Z,7.85
2019-03-16T06:03:46.838Z,8.01
2019-03-16T06:06:12.736Z,7.90
2019-03-16T06:08:38.603Z,7.98
2019-03-16T06:11:04.403Z,8.07
2019-03-16T06:13:30.309Z,8.02
2019-03-16T06:15:56.226Z,7.89
2019-03-16T06:18:22.065Z,7.94
2019-03-16T06:20:48.017Z,7.97
2019-03-16T06:23:13.861Z,7.76
2019-03-16T06:25:39.771Z,7.59
2019-03-16T06:28:05.743Z,7.57
2019-03-16T06:30:31.547Z,7.63
2019-03-16T06:32:57.366Z,7.73
2019-03-16T06:35:25.038Z,7.69
2019-03-16T06:37:51.076Z,7.74
2019-03-16T06:40:16.913Z,7.97
2019-03-16T06:42:42.878Z,8.13
2019-03-16T06:45:10.485Z,8.08
2019-03-16T06:47:36.416Z,8.25
2019-03-16T06:50:13.419Z,8.28
2019-03-16T06:52:39.257Z,8.43
2019-03-16T06:55:06.177Z,8.54
2019-03-16T06:57:32.010Z,8.50
2019-03-16T06:59:57.821Z,8.65
2019-03-16T07:02:23.841Z,8.69
2019-03-16T07:04:49.691Z,8.85
2019-03-16T07:07:15.524Z,8.96
2019-03-16T07:09:41.574Z,9.07
2019-03-16T07:12:07.394Z,9.26
2019-03-16T07:14:33.373Z,9.41
2019-03-16T07:17:02.390Z,9.40
2019-03-16T07:19:27.038Z,9.48
2019-03-16T07:21:52.918Z,9.62
2019-03-16T07:24:18.741Z,9.73
2019-03-16T07:26:44.701Z,9.74
2019-03-16T07:29:10.550Z,9.98
2019-03-16T07:31:36.500Z,10.12
2019-03-16T07:34:02.468Z,10.40
2019-03-16T07:36:28.306Z,10.60
2019-03-16T07:38:54.269Z,10.71
2019-03-16T07:41:20.131Z,10.62
2019-03-16T07:43:45.957Z,10.84
2019-03-16T07:46:11.936Z,10.93
2019-03-16T07:48:37.786Z,10.90
2019-03-16T07:51:03.712Z,10.92
2019-03-16T07:53:29.556Z,11.00
2019-03-16T07:55:55.490Z,11.05
2019-03-16T07:58:21.452Z,11.19
2019-03-16T08:00:47.349Z,11.17
2019-03-16T08:03:13.385Z,11.51
2019-03-16T08:05:39.343Z,11.29
2019-03-16T08:08:05.271Z,11.51
2019-03-16T08:10:31.206Z,11.58
2019-03-16T08:12:57.081Z,11.54
2019-03-16T08:15:23.027Z,11.60
2019-03-16T08:17:48.935Z,11.65
2019-03-16T08:20:15.119Z,11.79
2019-03-16T08:22:41.079Z,11.95
2019-03-16T08:25:08.910Z,12.30
2019-03-16T08:27:34.790Z,12.40
2019-03-16T08:30:00.769Z,12.23
2019-03-16T08:32:26.588Z,12.18
2019-03-16T08:34:52.587Z,12.32
2019-03-16T08:37:18.445Z,12.53
2019-03-16T08:39:44.292Z,12.72
2019-03-16T08:42:12.266Z,12.88
2019-03-16T08:44:37.899Z,13.05
2019-03-16T08:47:07.509Z,12.92
2019-03-16T08:49:33.364Z,13.35
2019-03-16T08:51:59.233Z,13.17
2019-03-16T08:54:25.181Z,13.56
2019-03-16T08:56:51.139Z,13.88
2019-03-16T08:59:16.986Z,13.97
2019-03-16T09:01:42.953Z,14.25
2019-03-16T09:04:08.816Z,14.49
2019-03-16T09:06:34.799Z,14.25
2019-03-16T09:09:00.630Z,14.28
2019-03-16T09:11:26.453Z,14.19
2019-03-16T09:13:52.337Z,14.01
2019-03-16T09:16:18.187Z,14.12
2019-03-16T09:18:44.039Z,14.74
2019-03-16T09:21:09.918Z,14.69
2019-03-16T09:23:35.733Z,14.64
2019-03-16T09:26:01.600Z,15.13
2019-03-16T09:28:27.453Z,15.20
2019-03-16T09:30:56.324Z,15.21
2019-03-16T09:33:21.452Z,15.11
2019-03-16T09:35:47.353Z,14.70
2019-03-16T09:38:13.295Z,14.66
2019-03-16T09:40:39.244Z,15.09
2019-03-16T09:43:05.187Z,15.09
2019-03-16T09:45:31.390Z,15.03
2019-03-16T09:47:57.248Z,15.63
2019-03-16T09:50:23.204Z,15.54
2019-03-16T09:52:50.073Z,15.55
2019-03-16T09:55:16.015Z,15.33
2019-03-16T09:57:42.002Z,15.48
2019-03-16T10:00:10.929Z,15.66
2019-03-16T10:02:36.760Z,16.02
2019-03-16T10:05:04.013Z,15.43
2019-03-16T10:07:29.920Z,15.60
2019-03-16T10:09:55.761Z,15.81
2019-03-16T10:12:21.626Z,15.47
2019-03-16T10:14:47.562Z,15.78
2019-03-16T10:17:13.507Z,15.71
2019-03-16T10:19:39.451Z,15.50
2019-03-16T10:22:05.386Z,16.24
2019-03-16T10:24:31.275Z,16.20
2019-03-16T10:26:57.144Z,16.63
2019-03-16T10:29:23.006Z,15.96
2019-03-16T10:31:49.049Z,16.05
2019-03-16T10:34:14.901Z,16.33
2019-03-16T10:36:40.735Z,16.78
2019-03-16T10:39:06.626Z,16.95
2019-03-16T10:41:32.556Z,16.74
2019-03-16T10:43:58.390Z,16.70
2019-03-16T10:46:24.247Z,17.13
2019-03-16T10:48:50.080Z,16.68
2019-03-16T10:51:16.040Z,17.07
2019-03-16T10:53:41.952Z,16.93
2019-03-16T10:56:07.763Z,16.68
2019-03-16T10:58:33.608Z,17.23
2019-03-16T11:00:59.469Z,17.41
2019-03-16T11:03:25.340Z,17.43
2019-03-16T11:05:51.186Z,17.27
2019-03-16T11:08:17.011Z,17.56
2019-03-16T11:10:42.885Z,17.98
2019-03-16T11:13:08.924Z,17.49
2019-03-16T11:15:34.835Z,17.53
2019-03-16T11:18:00.681Z,17.86
2019-03-16T11:20:26.545Z,17.65
2019-03-16T11:22:52.376Z,17.91
2019-03-16T11:25:18.397Z,17.89
2019-03-16T11:27:44.245Z,17.82
2019-03-16T11:30:14.699Z,18.01
2019-03-16T11:32:40.772Z,17.44
2019-03-16T11:35:08.922Z,18.39
2019-03-16T11:37:34.745Z,18.99
2019-03-16T11:40:00.717Z,18.65
2019-03-16T11:42:26.571Z,20.46
2019-03-16T11:44:52.458Z,20.66
2019-03-16T11:47:18.312Z,19.81
2019-03-16T11:49:44.132Z,20.08
2019-03-16T11:52:10.100Z,18.90
2019-03-16T11:54:35.930Z,19.01
2019-03-16T11:57:01.763Z,19.20
2019-03-16T11:59:27.640Z,21.87
2019-03-16T12:02:04.801Z,20.67
2019-03-16T12:04:21.272Z,20.18
2019-03-16T12:06:47.175Z,19.23
2019-03-16T12:09:13.132Z,20.41
2019-03-16T12:11:39.176Z,18.86
2019-03-16T12:14:05.002Z,20.20
2019-03-16T12:16:30.949Z,19.45
2019-03-16T12:18:56.932Z,19.47
2019-03-16T12:21:22.835Z,19.96
2019-03-16T12:23:48.681Z,19.72
2019-03-16T12:26:14.629Z,19.31
2019-03-16T12:28:40.459Z,19.56
2019-03-16T12:31:06.414Z,19.26
2019-03-16T12:33:32.253Z,20.08
2019-03-16T12:35:58.081Z,20.75
2019-03-16T12:38:24.075Z,20.35
2019-03-16T12:40:50.013Z,20.76
2019-03-16T12:43:15.955Z,20.73
2019-03-16T12:45:41.828Z,20.86
2019-03-16T12:48:07.656Z,21.63
2019-03-16T12:50:33.624Z,21.24
2019-03-16T12:52:59.464Z,21.04
2019-03-16T12:55:25.415Z,22.36
2019-03-16T12:57:51.359Z,23.78
2019-03-16T13:00:19.430Z,24.29
2019-03-16T13:02:46.658Z,23.00
2019-03-16T13:05:12.687Z,23.49
2019-03-16T13:07:38.642Z,24.86
2019-03-16T13:10:11.306Z,25.31
2019-03-16T13:12:39.138Z,26.02
2019-03-16T13:15:06.982Z,25.43
2019-03-16T13:17:32.914Z,26.65
2019-03-16T13:19:58.725Z,27.27
2019-03-16T13:22:24.596Z,26.49
2019-03-16T13:24:50.913Z,28.15
2019-03-16T13:27:16.735Z,28.41
2019-03-16T13:29:58.215Z,26.91
2019-03-16T13:32:14.784Z,29.20
2019-03-16T13:34:41.957Z,28.41
2019-03-16T13:37:07.811Z,31.14
2019-03-16T13:39:33.725Z,29.29
2019-03-16T13:41:59.684Z,29.94
2019-03-16T13:44:25.498Z,29.71
2019-03-16T13:46:52.770Z,26.11
2019-03-16T13:49:18.642Z,25.09
2019-03-16T13:51:47.665Z,30.19
2019-03-16T13:54:13.627Z,28.88
2019-03-16T13:56:39.548Z,28.88
2019-03-16T13:59:05.403Z,26.92
2019-03-16T14:01:31.604Z,28.83
2019-03-16T14:03:57.527Z,29.99
2019-03-16T14:06:23.365Z,30.38
2019-03-16T14:08:49.457Z,30.79
2019-03-16T14:11:15.311Z,29.67
2019-03-16T14:13:41.134Z,30.46
2019-03-16T14:16:07.097Z,32.05
2019-03-16T14:18:32.942Z,33.75
2019-03-16T14:20:58.894Z,28.53
2019-03-16T14:23:24.738Z,31.17
2019-03-16T14:25:50.675Z,31.59
2019-03-16T14:28:16.914Z,32.71
2019-03-16T14:30:45.246Z,31.20
2019-03-16T14:33:11.466Z,29.97
2019-03-16T14:35:37.416Z,29.74
2019-03-16T14:38:03.363Z,29.25
2019-03-16T14:40:29.291Z,29.96
2019-03-16T14:42:55.212Z,33.37
2019-03-16T14:45:21.391Z,33.52
2019-03-16T14:47:47.213Z,34.18
2019-03-16T14:50:20.121Z,34.35
2019-03-16T14:52:46.172Z,30.58
2019-03-16T14:55:12.196Z,32.86
2019-03-16T14:57:38.120Z,32.04
2019-03-16T15:00:07.817Z,35.60
2019-03-16T15:02:33.873Z,33.28
2019-03-16T15:04:59.729Z,31.10
2019-03-16T15:07:25.705Z,33.74
2019-03-16T15:09:51.641Z,30.49
2019-03-16T15:12:17.497Z,31.18
2019-03-16T15:14:43.391Z,32.36
2019-03-16T15:17:09.440Z,27.87
2019-03-16T15:19:35.342Z,28.63
2019-03-16T15:22:01.227Z,29.07
2019-03-16T15:24:27.059Z,33.14
2019-03-16T15:26:53.017Z,30.49
2019-03-16T15:29:18.852Z,31.59
2019-03-16T15:31:44.816Z,31.21
2019-03-16T15:34:10.768Z,30.58
2019-03-16T15:36:36.625Z,30.73
2019-03-16T15:39:05.249Z,30.48
2019-03-16T15:41:31.088Z,31.71
2019-03-16T15:43:56.932Z,31.28
2019-03-16T15:46:23.058Z,31.64
2019-03-16T15:48:49.019Z,28.48
2019-03-16T15:51:14.834Z,28.48
2019-03-16T15:53:40.874Z,27.11
2019-03-16T15:56:06.851Z,26.90
2019-03-16T15:58:32.772Z,27.56
2019-03-16T16:01:03.643Z,25.93
2019-03-16T16:03:26.492Z,25.86
2019-03-16T16:05:52.524Z,24.73
2019-03-16T16:08:19.458Z,26.03
2019-03-16T16:10:45.539Z,26.12
2019-03-16T16:13:11.418Z,25.04
2019-03-16T16:15:37.269Z,26.26
2019-03-16T16:18:03.207Z,27.90
2019-03-16T16:20:29.245Z,27.44
2019-03-16T16:22:55.090Z,26.78
2019-03-16T16:25:20.916Z,24.91
2019-03-16T16:27:47.110Z,23.62
2019-03-16T16:30:19.950Z,23.56
2019-03-16T16:32:45.946Z,23.23
2019-03-16T16:35:12.827Z,23.60
2019-03-16T16:37:38.845Z,24.11
2019-03-16T16:40:14.677Z,25.61
2019-03-16T16:42:40.511Z,25.08
2019-03-16T16:45:09.151Z,22.29
2019-03-16T16:47:35.178Z,21.55
2019-03-16T16:50:01.035Z,21.41
2019-03-16T16:52:26.879Z,21.13
2019-03-16T16:54:52.810Z,20.73
2019-03-16T16:57:18.734Z,20.50
2019-03-16T16:59:44.586Z,20.39
2019-03-16T17:02:10.557Z,19.68
2019-03-16T17:04:36.509Z,19.56
2019-03-16T17:07:02.861Z,19.80
2019-03-16T17:09:28.790Z,19.47
2019-03-16T17:11:54.716Z,19.32
2019-03-16T17:14:20.596Z,19.39
2019-03-16T17:16:46.436Z,19.19
2019-03-16T17:19:12.331Z,19.02
2019-03-16T17:21:38.459Z,18.97
2019-03-16T17:24:04.515Z,18.87
2019-03-16T17:26:31.573Z,18.83
2019-03-16T17:28:57.407Z,18.77
2019-03-16T17:31:23.266Z,18.71
2019-03-16T17:33:49.193Z,18.78
2019-03-16T17:36:15.044Z,18.76
2019-03-16T17:38:40.990Z,18.71
2019-03-16T17:41:06.979Z,18.75
2019-03-16T17:43:33.194Z,18.74
2019-03-16T17:45:59.054Z,18.58
2019-03-16T17:48:24.901Z,18.53
2019-03-16T17:50:50.827Z,18.37
2019-03-16T17:53:16.657Z,18.51
2019-03-16T17:55:46.225Z,18.32
2019-03-16T17:58:12.297Z,18.29
2019-03-16T18:00:38.206Z,18.19
2019-03-16T18:03:04.274Z,18.26
2019-03-16T18:05:30.238Z,18.18
2019-03-16T18:07:56.192Z,18.03
2019-03-16T18:10:22.081Z,18.04
2019-03-16T18:12:48.270Z,17.95
2019-03-16T18:15:18.403Z,17.88
2019-03-16T18:17:44.321Z,17.69
2019-03-16T18:20:11.977Z,17.45
2019-03-16T18:22:37.781Z,17.56
2019-03-16T18:25:07.046Z,17.26
2019-03-16T18:27:32.977Z,17.19
2019-03-16T18:29:58.843Z,17.07
2019-03-16T18:32:24.702Z,16.92
2019-03-16T18:34:50.563Z,16.90
2019-03-16T18:37:16.509Z,16.88
2019-03-16T18:39:42.318Z,16.80
2019-03-16T18:42:08.163Z,16.78
2019-03-16T18:44:34.258Z,16.66
2019-03-16T18:47:00.095Z,16.52
2019-03-16T18:49:25.908Z,16.43
2019-03-16T18:51:51.837Z,16.41
2019-03-16T18:54:17.697Z,16.38
2019-03-16T18:56:43.795Z,16.35
2019-03-16T18:59:09.749Z,16.24
2019-03-16T19:01:35.604Z,16.32
2019-03-16T19:04:01.436Z,16.20
2019-03-16T19:06:27.325Z,16.07
2019-03-16T19:08:53.139Z,15.96
2019-03-16T19:11:18.977Z,15.92
2019-03-16T19:13:44.917Z,15.69
2019-03-16T19:16:10.764Z,15.60
2019-03-16T19:18:36.678Z,15.73
2019-03-16T19:21:02.870Z,15.85
2019-03-16T19:23:28.699Z,15.70
2019-03-16T19:25:54.536Z,15.66
2019-03-16T19:28:20.518Z,15.58
2019-03-16T19:30:46.383Z,15.62
2019-03-16T19:33:12.201Z,15.77
2019-03-16T19:35:38.103Z,15.85
2019-03-16T19:38:04.042Z,15.54
2019-03-16T19:40:29.970Z,15.57
2019-03-16T19:42:55.858Z,15.43
2019-03-16T19:45:21.707Z,15.25
2019-03-16T19:47:47.540Z,15.05
2019-03-16T19:50:14.388Z,14.97
2019-03-16T19:52:40.321Z,15.00
2019-03-16T19:55:10.976Z,15.25
2019-03-16T19:57:36.970Z,15.10
2019-03-16T20:00:05.884Z,15.00
2019-03-16T20:02:31.828Z,14.99
2019-03-16T20:04:57.647Z,14.94
2019-03-16T20:07:23.587Z,14.94
2019-03-16T20:09:49.443Z,14.87
2019-03-16T20:12:15.276Z,14.85
2019-03-16T20:14:41.182Z,14.51
2019-03-16T20:17:07.006Z,14.43
2019-03-16T20:19:32.844Z,14.17
2019-03-16T20:21:58.699Z,14.57
2019-03-16T20:24:24.660Z,14.62
2019-03-16T20:26:50.607Z,14.46
2019-03-16T20:29:16.487Z,14.45
2019-03-16T20:31:47.093Z,14.29
2019-03-16T20:34:10.134Z,14.26
2019-03-16T20:36:35.975Z,14.10
2019-03-16T20:39:03.710Z,14.15
2019-03-16T20:41:36.199Z,14.08
2019-03-16T20:43:57.465Z,14.06
2019-03-16T20:46:23.398Z,13.94
2019-03-16T20:48:49.300Z,13.83
2019-03-16T20:51:15.242Z,13.78
2019-03-16T20:53:41.080Z,13.72
2019-03-16T20:56:07.150Z,13.43
2019-03-16T20:58:37.103Z,13.59
2019-03-16T21:01:03.168Z,13.50
2019-03-16T21:03:28.989Z,13.36
2019-03-16T21:05:54.860Z,13.13
2019-03-16T21:08:20.828Z,13.10
2019-03-16T21:10:46.655Z,13.45
2019-03-16T21:13:12.557Z,13.33
2019-03-16T21:15:38.518Z,13.29
2019-03-16T21:18:04.578Z,13.20
2019-03-16T21:20:30.538Z,13.19
2019-03-16T21:22:56.575Z,13.19
2019-03-16T21:25:22.539Z,13.19
2019-03-16T21:27:48.546Z,12.97
2019-03-16T21:30:19.608Z,13.13
2019-03-16T21:32:45.628Z,13.03
2019-03-16T21:35:11.465Z,12.79
2019-03-16T21:37:37.416Z,13.06
2019-03-16T21:40:06.642Z,13.06
2019-03-16T21:42:32.611Z,12.75
2019-03-16T21:44:58.654Z,12.89
2019-03-16T21:47:24.970Z,13.03
2019-03-16T21:49:50.918Z,12.91
2019-03-16T21:52:16.975Z,12.75
2019-03-16T21:54:42.877Z,13.00
2019-03-16T21:57:08.977Z,12.75
2019-03-16T21:59:35.037Z,12.85
2019-03-16T22:02:01.132Z,12.85
2019-03-16T22:04:27.112Z,12.75
2019-03-16T22:06:52.936Z,12.60
2019-03-16T22:09:18.797Z,12.64
2019-03-16T22:11:44.674Z,12.42
2019-03-16T22:14:10.558Z,12.33
2019-03-16T22:16:36.512Z,12.34
2019-03-16T22:19:02.534Z,12.19
2019-03-16T22:21:28.513Z,12.17
2019-03-16T22:23:54.467Z,12.08
2019-03-16T22:26:20.340Z,12.01
2019-03-16T22:28:46.193Z,11.97
2019-03-16T22:31:12.118Z,11.92
2019-03-16T22:33:38.179Z,11.91
2019-03-16T22:36:04.115Z,11.63
2019-03-16T22:38:29.978Z,11.56
2019-03-16T22:40:55.854Z,11.72
2019-03-16T22:43:21.806Z,11.90
2019-03-16T22:45:47.700Z,11.84
2019-03-16T22:48:13.668Z,11.89
2019-03-16T22:50:39.713Z,11.66
2019-03-16T22:53:05.666Z,11.47
2019-03-16T22:55:31.587Z,11.56
2019-03-16T22:57:57.443Z,11.88
2019-03-16T23:00:25.668Z,11.77
2019-03-16T23:02:51.597Z,11.82
2019-03-16T23:05:17.654Z,11.74
2019-03-16T23:07:43.662Z,11.61
2019-03-16T23:10:10.705Z,11.60
2019-03-16T23:12:36.530Z,11.60
2019-03-16T23:15:04.910Z,11.68
2019-03-16T23:17:32.313Z,11.50
2019-03-16T23:19:58.137Z,11.49
2019-03-16T23:22:24.106Z,11.56
2019-03-16T23:24:49.932Z,11.32
2019-03-16T23:27:15.897Z,11.27
2019-03-16T23:29:41.791Z,11.33
2019-03-16T23:32:07.753Z,11.45
2019-03-16T23:34:33.629Z,11.40
2019-03-16T23:36:59.465Z,11.34
2019-03-16T23:39:25.329Z,11.31
2019-03-16T23:41:51.297Z,11.08
2019-03-16T23:44:17.223Z,11.00
2019-03-16T23:46:43.154Z,10.73
2019-03-16T23:49:09.049Z,10.67
2019-03-16T23:51:34.879Z,10.75
2019-03-16T23:54:00.817Z,10.76
2019-03-16T23:56:26.852Z,10.80
2019-03-16T23:58:52.945Z,10.67
